首页
METAR-TAF:

METAR-TAF

机场 :

Corumbá, 南马托格罗索州, 巴西

纬度: 19-05S, 经度: 057-30W, 海拔: 130米

当前天气观测

该预报发布于56分钟前的18:00 UTC
风速10节,风向,在北转西北东转东北之间变化
温度 35°C
湿度 20%
气压 1014 hPa
能見度: 3500

METAR: SBCR 241800Z 01010KT 330V060 9999 3500S NSC 35/09 Q1014

时间: 14:56 (18:56 UTC)

预报

该预报发布于4小时和56分钟前的14:00 UTC
预报有效从24日的 18点(UTC)到 25日的 18点(UTC)
风速10节,风向北转东北
能見度: 8000
成为
从 24日的 21点(UTC)到 24日的 23点(UTC)
风速3节,风向东转东北
成为
从 25日的 12点(UTC)到 25日的 14点(UTC)
风速8节,风向北转东北

TAF: SBCR 241400Z 2418/2518 03010KT 8000 NSC TX34/2418Z TN18/2510Z BECMG 2421/2423 07003KT BECMG 2512/2514 02008KT RMK PGF

超过4000个机场的气象观测和天气预报(METAR&TAF报告)。

可查询的气象台以黄色和红色小点在地图上表示。

将鼠标移到小点上方,可查看气象台名称。

然后点击查看天气观测和预报。

如需切换地图:点击带黑十字的绿色按钮放大地图;点击带横线的绿色按钮缩小地图;或者点击绿色箭头查看邻近地区的地图。


METAR-TAF: